Hauptseite
METAR-TAF:

METAR-TAF

Flughäfen :

Curaçao, Niederländische Antillen

Flughafen Curaçao

Breite: 12-12N, Länge: 068-58W, Höhe: 9 m

Beobachtung

Neuester Wetterbericht von vor 1 Stunde und 57 Minuten, um 11:00 UTC
Wind 3 kt aus Südost
Temperatur 26°C
Luftfeuchtigkeit 89%
Luftdruck 1013 hPa
Sichtweite 10 km oder mehr
Leicht bewölkt in der Höhe von 1800 ft

METAR: TNCC 211100Z 13003KT 9999 FEW018 26/24 Q1013 NOSIG

Zeit: 08:57 (12:57 UTC)

Prognose

Neuester Wetterbericht von vor 2 Stunden und 57 Minuten, um 10:00 UTC
Gültige Prognose vom 21 um 12 UTC bis 22 um 12 UTC
Wind 11 kt aus Ost
Sichtweite 10 km oder mehr
Aufgelockert bewölkt in der Höhe von 1800 ft

TAF: TNCC 211000Z 2112/2212 10011KT 9999 SCT018

Wetterbeobachtungen und Prognosen von mehr als 4000 Flughäfen (METAR und TAF Bericht).

Die verfügbaren Stationen werden durch gelbe und rote Markierungen auf der Karte dargestellt.

Führen Sie die Maus auf sie, um den Namen der Station zu sehen.

Darauf klicken, um die Beobachtung von Wetterbeobachtungen und Prognosen zu sehen.

Um die Karte zu ändern : klicken Sie auf den grünen Tasten mit einem schwarzen Kreuz Zum Vergrößern, auf den grünen Button mit einem Gedankenstrich zu verkleinern, oder auf die grünen Pfeile für benachbarte Karten.


METAR-TAF: